createdAt,value
2017-04-26T00:00:17.107Z,998.32
2017-04-26T00:01:30.744Z,998.3
2017-04-26T00:02:44.556Z,998.34
2017-04-26T00:03:58.676Z,998.26
2017-04-26T00:05:12.803Z,998.36
2017-04-26T00:06:26.484Z,998.39
2017-04-26T00:07:40.348Z,998.47
2017-04-26T00:08:53.742Z,998.61
2017-04-26T00:10:07.668Z,998.48
2017-04-26T00:11:22.117Z,998.45
2017-04-26T00:12:35.987Z,998.48
2017-04-26T00:13:49.823Z,998.45
2017-04-26T00:15:04.760Z,998.45
2017-04-26T00:16:18.357Z,998.42
2017-04-26T00:17:32.998Z,998.4
2017-04-26T00:18:47.027Z,998.38
2017-04-26T00:20:00.606Z,998.39
2017-04-26T00:21:14.414Z,998.42
2017-04-26T00:22:28.153Z,998.37
2017-04-26T00:23:41.914Z,998.37
2017-04-26T00:24:55.697Z,998.26
2017-04-26T00:27:55.180Z,998.27
2017-04-26T00:29:08.638Z,998.25
2017-04-26T00:30:23.041Z,998.24
2017-04-26T00:31:37.255Z,998.3
2017-04-26T00:32:51.197Z,998.36
2017-04-26T00:34:04.564Z,998.33
2017-04-26T00:35:18.058Z,998.36
2017-04-26T00:36:31.908Z,998.44
2017-04-26T00:37:45.464Z,998.51
2017-04-26T00:38:58.895Z,998.5
2017-04-26T00:40:12.996Z,998.41
2017-04-26T00:41:45.697Z,998.45
2017-04-26T00:43:00.515Z,998.48
2017-04-26T00:44:13.910Z,998.58
2017-04-26T00:45:27.464Z,998.54
2017-04-26T00:46:41.191Z,998.58
2017-04-26T00:47:54.877Z,998.61
2017-04-26T00:49:08.882Z,998.61
2017-04-26T00:50:22.425Z,998.66
2017-04-26T00:51:35.848Z,998.63
2017-04-26T00:52:49.704Z,998.61
2017-04-26T00:54:03.090Z,998.68
2017-04-26T00:55:16.886Z,998.67
2017-04-26T00:56:30.697Z,998.59
2017-04-26T00:57:44.358Z,998.55
2017-04-26T00:58:57.741Z,998.46
2017-04-26T01:00:11.527Z,998.43
2017-04-26T01:01:25.286Z,998.48
2017-04-26T01:02:38.795Z,998.49
2017-04-26T01:03:52.434Z,998.55
2017-04-26T01:05:05.956Z,998.55
2017-04-26T01:06:19.344Z,998.52
2017-04-26T01:07:47.983Z,998.53
2017-04-26T01:09:01.366Z,998.46
2017-04-26T01:10:14.868Z,998.44
2017-04-26T01:11:28.346Z,998.43
2017-04-26T01:12:41.928Z,998.4
2017-04-26T01:13:55.612Z,998.41
2017-04-26T01:15:09.174Z,998.44
2017-04-26T01:16:23.282Z,998.49
2017-04-26T01:17:37.008Z,998.51
2017-04-26T01:18:50.542Z,998.55
2017-04-26T01:20:04.582Z,998.55
2017-04-26T01:21:18.383Z,998.52
2017-04-26T01:22:32.156Z,998.49
2017-04-26T01:23:45.648Z,998.46
2017-04-26T01:24:59.277Z,998.47
2017-04-26T01:26:13.043Z,998.52
2017-04-26T01:27:26.867Z,998.56
2017-04-26T01:28:40.282Z,998.54
2017-04-26T01:29:53.753Z,998.59
2017-04-26T01:31:07.147Z,998.57
2017-04-26T01:32:20.947Z,998.59
2017-04-26T01:33:34.515Z,998.69
2017-04-26T01:34:48.378Z,998.6
2017-04-26T01:36:01.759Z,998.59
2017-04-26T01:37:15.571Z,998.5
2017-04-26T01:38:29.275Z,998.5
2017-04-26T01:39:42.764Z,998.49
2017-04-26T01:40:56.326Z,998.56
2017-04-26T01:42:09.812Z,998.5
2017-04-26T01:43:23.285Z,998.45
2017-04-26T01:44:37.070Z,998.46
2017-04-26T01:45:50.469Z,998.5
2017-04-26T01:47:04.025Z,998.49
2017-04-26T01:48:17.797Z,998.48
2017-04-26T01:49:31.331Z,998.55
2017-04-26T01:50:45.029Z,998.6
2017-04-26T01:51:58.507Z,998.54
2017-04-26T01:53:11.883Z,998.59
2017-04-26T01:54:25.471Z,998.56
2017-04-26T01:55:39.199Z,998.58
2017-04-26T01:56:52.983Z,998.53
2017-04-26T01:58:06.663Z,998.55
2017-04-26T01:59:20.221Z,998.51
2017-04-26T02:00:33.662Z,998.55
2017-04-26T02:01:47.401Z,998.58
2017-04-26T02:03:01.877Z,998.57
2017-04-26T02:04:15.371Z,998.63
2017-04-26T02:08:20.693Z,998.63
2017-04-26T02:09:34.296Z,998.6
2017-04-26T02:10:47.818Z,998.61
2017-04-26T02:12:01.292Z,998.67
2017-04-26T02:13:14.810Z,998.74
2017-04-26T02:14:28.815Z,998.69
2017-04-26T02:15:42.635Z,998.67
2017-04-26T02:16:56.675Z,998.69
2017-04-26T02:18:10.502Z,998.7
2017-04-26T02:19:23.936Z,998.68
2017-04-26T02:20:38.222Z,998.65
2017-04-26T02:21:51.647Z,998.61
2017-04-26T02:23:05.131Z,998.54
2017-04-26T02:24:18.520Z,998.51
2017-04-26T02:25:32.405Z,998.58
2017-04-26T02:26:46.064Z,998.47
2017-04-26T02:28:35.320Z,998.49
2017-04-26T02:29:48.896Z,998.45
2017-04-26T02:31:02.363Z,998.45
2017-04-26T02:32:15.887Z,998.48
2017-04-26T02:33:29.301Z,998.46
2017-04-26T02:34:42.910Z,998.44
2017-04-26T02:35:56.880Z,998.43
2017-04-26T02:37:10.445Z,998.45
2017-04-26T02:38:23.827Z,998.45
2017-04-26T02:39:37.338Z,998.49
2017-04-26T02:40:51.247Z,998.45
2017-04-26T02:42:18.634Z,998.52
2017-04-26T02:43:32.081Z,998.46
2017-04-26T02:44:45.623Z,998.32
2017-04-26T02:45:59.007Z,998.34
2017-04-26T02:47:12.611Z,998.39
2017-04-26T02:48:25.994Z,998.39
2017-04-26T02:49:39.479Z,998.41
2017-04-26T02:50:53.612Z,998.44
2017-04-26T02:52:07.564Z,998.41
2017-04-26T02:53:21.279Z,998.38
2017-04-26T02:54:34.784Z,998.39
2017-04-26T02:55:48.154Z,998.4
2017-04-26T02:57:01.682Z,998.4
2017-04-26T02:58:15.089Z,998.42
2017-04-26T02:59:29.045Z,998.41
2017-04-26T03:00:43.339Z,998.42
2017-04-26T03:01:57.143Z,998.42
2017-04-26T03:03:10.611Z,998.38
2017-04-26T03:04:24.116Z,998.39
2017-04-26T03:05:37.483Z,998.39
2017-04-26T03:06:51.003Z,998.38
2017-04-26T03:08:05.073Z,998.4
2017-04-26T03:09:18.884Z,998.41
2017-04-26T03:10:32.327Z,998.37
2017-04-26T03:11:45.799Z,998.34
2017-04-26T03:12:59.569Z,998.37
2017-04-26T03:14:13.391Z,998.35
2017-04-26T03:15:27.817Z,998.35
2017-04-26T03:16:41.650Z,998.32
2017-04-26T03:17:55.032Z,998.3
2017-04-26T03:19:08.703Z,998.31
2017-04-26T03:20:22.235Z,998.3
2017-04-26T03:21:35.798Z,998.28
2017-04-26T03:22:49.488Z,998.26
2017-04-26T03:24:03.035Z,998.28
2017-04-26T03:25:16.436Z,998.26
2017-04-26T03:26:29.933Z,998.28
2017-04-26T03:27:43.446Z,998.31
2017-04-26T03:28:57.391Z,998.27
2017-04-26T03:30:10.828Z,998.33
2017-04-26T03:31:24.402Z,998.26
2017-04-26T03:32:38.230Z,998.29
2017-04-26T03:33:51.779Z,998.26
2017-04-26T03:35:05.205Z,998.3
2017-04-26T03:36:18.747Z,998.31
2017-04-26T03:37:32.171Z,998.25
2017-04-26T03:38:46.004Z,998.26
2017-04-26T03:39:59.469Z,998.26
2017-04-26T03:41:13.190Z,998.24
2017-04-26T03:42:26.922Z,998.21
2017-04-26T03:43:40.521Z,998.25
2017-04-26T03:44:53.988Z,998.27
2017-04-26T03:46:08.066Z,998.28
2017-04-26T03:47:21.975Z,998.28
2017-04-26T03:48:35.496Z,998.29
2017-04-26T03:49:49.247Z,998.35
2017-04-26T03:51:03.182Z,998.33
2017-04-26T03:52:16.595Z,998.31
2017-04-26T03:53:30.162Z,998.34
2017-04-26T03:54:43.587Z,998.38
2017-04-26T03:55:57.162Z,998.38
2017-04-26T03:57:10.892Z,998.33
2017-04-26T03:58:24.467Z,998.34
2017-04-26T03:59:37.908Z,998.36
2017-04-26T04:00:51.528Z,998.38
2017-04-26T04:02:05.337Z,998.4
2017-04-26T04:03:18.902Z,998.49
2017-04-26T04:04:32.421Z,998.53
2017-04-26T04:05:46.502Z,998.46
2017-04-26T04:07:00.121Z,998.55
2017-04-26T04:08:13.988Z,998.57
2017-04-26T04:09:27.466Z,998.59
2017-04-26T04:10:41.316Z,998.57
2017-04-26T04:11:55.104Z,998.58
2017-04-26T04:13:08.931Z,998.64
2017-04-26T04:14:22.306Z,998.68
2017-04-26T04:15:36.127Z,998.65
2017-04-26T04:16:49.620Z,998.65
2017-04-26T04:18:03.155Z,998.64
2017-04-26T04:19:16.522Z,998.65
2017-04-26T04:20:30.582Z,998.66
2017-04-26T04:21:44.329Z,998.66
2017-04-26T04:22:57.939Z,998.64
2017-04-26T04:24:11.365Z,998.66
2017-04-26T04:25:24.902Z,998.61
2017-04-26T04:26:38.435Z,998.56
2017-04-26T04:27:51.984Z,998.59
2017-04-26T04:29:05.377Z,998.56
2017-04-26T04:30:19.101Z,998.56
2017-04-26T04:31:34.651Z,998.61
2017-04-26T04:33:06.679Z,998.63
2017-04-26T04:34:20.746Z,998.63
2017-04-26T04:35:34.481Z,998.59
2017-04-26T04:36:47.966Z,998.63
2017-04-26T04:38:02.242Z,998.66
2017-04-26T04:39:15.931Z,998.67
2017-04-26T04:40:30.215Z,998.65
2017-04-26T04:41:44.026Z,998.7
2017-04-26T04:42:58.665Z,998.69
2017-04-26T04:44:12.067Z,998.68
2017-04-26T04:45:25.602Z,998.71
2017-04-26T04:46:39.072Z,998.73
2017-04-26T04:47:52.614Z,998.71
2017-04-26T04:49:05.989Z,998.71
2017-04-26T04:50:19.987Z,998.74
2017-04-26T04:51:33.399Z,998.74
2017-04-26T04:52:47.222Z,998.74
2017-04-26T04:54:01.439Z,998.8
2017-04-26T04:55:15.287Z,998.81
2017-04-26T04:56:28.677Z,998.82
2017-04-26T04:57:42.351Z,998.85
2017-04-26T04:58:55.929Z,998.78
2017-04-26T05:00:11.149Z,998.78
2017-04-26T05:01:24.911Z,998.77
2017-04-26T05:02:38.512Z,998.84
2017-04-26T05:03:52.193Z,998.84
2017-04-26T05:05:06.468Z,998.92
2017-04-26T05:06:20.683Z,998.88
2017-04-26T05:07:34.212Z,998.89
2017-04-26T05:08:47.610Z,998.9
2017-04-26T05:10:01.283Z,998.96
2017-04-26T05:11:15.332Z,999.01
2017-04-26T05:12:28.902Z,999.03
2017-04-26T05:13:42.640Z,999.01
2017-04-26T05:14:56.503Z,998.97
2017-04-26T05:16:10.072Z,999.03
2017-04-26T05:17:23.617Z,999.03
2017-04-26T05:18:37.366Z,998.98
2017-04-26T05:19:50.927Z,999.04
2017-04-26T05:21:04.329Z,999.11
2017-04-26T05:22:18.246Z,999.08
2017-04-26T05:23:31.686Z,999.09
2017-04-26T05:24:45.271Z,999.03
2017-04-26T05:25:58.759Z,999.07
2017-04-26T05:27:12.260Z,999.1
2017-04-26T05:28:25.977Z,999.18
2017-04-26T05:29:39.631Z,999.15
2017-04-26T05:30:53.371Z,999.13
2017-04-26T05:32:06.865Z,999.15
2017-04-26T05:33:20.252Z,999.17
2017-04-26T05:34:33.768Z,999.11
2017-04-26T05:35:47.229Z,999.14
2017-04-26T05:37:01.123Z,999.16
2017-04-26T05:38:14.929Z,999.2
2017-04-26T05:39:28.903Z,999.17
2017-04-26T05:40:43.045Z,999.22
2017-04-26T05:41:56.642Z,999.21
2017-04-26T05:43:10.516Z,999.16
2017-04-26T05:44:24.101Z,999.18
2017-04-26T05:45:37.516Z,999.17
2017-04-26T05:47:01.752Z,999.22
2017-04-26T05:48:16.184Z,999.26
2017-04-26T05:49:29.693Z,999.25
2017-04-26T05:50:43.120Z,999.34
2017-04-26T05:51:56.720Z,999.34
2017-04-26T05:53:10.426Z,999.43
2017-04-26T05:54:23.982Z,999.33
2017-04-26T05:55:37.461Z,999.37
2017-04-26T05:56:51.089Z,999.33
2017-04-26T05:58:04.793Z,999.38
2017-04-26T05:59:18.675Z,999.36
2017-04-26T06:00:32.102Z,999.36
2017-04-26T06:01:45.733Z,999.36
2017-04-26T06:02:59.745Z,999.43
2017-04-26T06:04:13.297Z,999.4
2017-04-26T06:05:26.705Z,999.39
2017-04-26T06:06:40.258Z,999.42
2017-04-26T06:07:53.702Z,999.41
2017-04-26T06:09:07.412Z,999.42
2017-04-26T06:10:20.873Z,999.45
2017-04-26T06:11:34.484Z,999.46
2017-04-26T06:12:48.282Z,999.42
2017-04-26T06:14:01.907Z,999.45
2017-04-26T06:15:15.331Z,999.43
2017-04-26T06:16:30.102Z,999.46
2017-04-26T06:17:44.065Z,999.45
2017-04-26T06:18:58.393Z,999.53
2017-04-26T06:20:11.924Z,999.56
2017-04-26T06:21:25.876Z,999.53
2017-04-26T06:22:39.785Z,999.55
2017-04-26T06:23:53.813Z,999.54
2017-04-26T06:25:07.309Z,999.54
2017-04-26T06:26:21.278Z,999.56
2017-04-26T06:27:34.719Z,999.61
2017-04-26T06:28:48.727Z,999.61
2017-04-26T06:30:02.500Z,999.6
2017-04-26T06:31:16.106Z,999.6
2017-04-26T06:32:29.511Z,999.59
2017-04-26T06:33:43.186Z,999.6
2017-04-26T06:34:56.649Z,999.67
2017-04-26T06:36:10.213Z,999.69
2017-04-26T06:37:24.060Z,999.64
2017-04-26T06:38:37.861Z,999.66
2017-04-26T06:39:51.330Z,999.66
2017-04-26T06:41:18.346Z,999.66
2017-04-26T06:42:31.737Z,999.66
2017-04-26T06:43:45.332Z,999.64
2017-04-26T06:44:58.754Z,999.64
2017-04-26T06:46:12.607Z,999.71
2017-04-26T06:47:26.457Z,999.71
2017-04-26T06:48:40.643Z,999.71
2017-04-26T06:53:52.904Z,999.68
2017-04-26T06:55:06.556Z,999.74
2017-04-26T06:56:20.053Z,999.75
2017-04-26T06:57:34.318Z,999.71
2017-04-26T06:58:48.780Z,999.68
2017-04-26T07:00:03.537Z,999.68
2017-04-26T07:01:17.006Z,999.71
2017-04-26T07:02:30.570Z,999.69
2017-04-26T07:03:44.823Z,999.68
2017-04-26T07:04:58.542Z,999.71
2017-04-26T07:06:12.248Z,999.68
2017-04-26T07:07:26.208Z,999.77
2017-04-26T07:08:39.750Z,999.75
2017-04-26T07:09:54.021Z,999.73
2017-04-26T07:11:07.421Z,999.77
2017-04-26T07:14:08.709Z,999.7
2017-04-26T07:19:26.956Z,999.83
2017-04-26T07:20:41.022Z,999.77
2017-04-26T07:21:54.554Z,999.71
2017-04-26T07:23:08.564Z,999.76
2017-04-26T07:24:21.955Z,999.82
2017-04-26T07:25:35.567Z,999.81
2017-04-26T07:26:49.142Z,999.76
2017-04-26T07:28:02.984Z,999.7
2017-04-26T07:29:16.401Z,999.71
2017-04-26T07:30:30.005Z,999.7
2017-04-26T07:31:43.445Z,999.71
2017-04-26T07:32:57.122Z,999.72
2017-04-26T07:34:10.577Z,999.74
2017-04-26T07:35:24.151Z,999.79
2017-04-26T07:36:37.569Z,999.72
2017-04-26T07:37:51.486Z,999.69
2017-04-26T07:39:05.581Z,999.72
2017-04-26T07:40:19.172Z,999.73
2017-04-26T07:41:33.324Z,999.75
2017-04-26T07:43:00.293Z,999.77
2017-04-26T07:44:13.712Z,999.81
2017-04-26T07:45:27.632Z,999.8
2017-04-26T07:46:41.175Z,999.73
2017-04-26T07:47:54.688Z,999.75
2017-04-26T07:49:08.181Z,999.74
2017-04-26T07:50:22.063Z,999.78
2017-04-26T07:51:36.532Z,999.73
2017-04-26T07:52:50.066Z,999.71
2017-04-26T07:54:03.512Z,999.71
2017-04-26T07:55:17.064Z,999.69
2017-04-26T07:56:45.666Z,999.72
2017-04-26T07:57:59.227Z,999.74
2017-04-26T07:59:12.931Z,999.75
2017-04-26T08:00:27.306Z,999.75
2017-04-26T08:01:40.750Z,999.75
2017-04-26T08:02:54.676Z,999.78
2017-04-26T08:04:08.414Z,999.8
2017-04-26T08:05:22.166Z,999.81
2017-04-26T08:06:36.520Z,999.84
2017-04-26T08:07:50.164Z,999.84
2017-04-26T08:09:03.861Z,999.79
2017-04-26T08:10:17.461Z,999.87
2017-04-26T08:11:30.947Z,999.91
2017-04-26T08:12:44.853Z,999.91
2017-04-26T08:13:58.779Z,999.99
2017-04-26T08:15:12.549Z,1000.02
2017-04-26T08:16:26.124Z,999.99
2017-04-26T08:17:49.516Z,999.97
2017-04-26T08:19:02.934Z,999.95
2017-04-26T08:20:16.455Z,999.99
2017-04-26T08:21:30.192Z,999.95
2017-04-26T08:22:43.851Z,999.96
2017-04-26T08:23:57.588Z,999.96
2017-04-26T08:25:11.147Z,1000.01
2017-04-26T08:26:25.174Z,999.93
2017-04-26T08:27:39.041Z,999.9
2017-04-26T08:28:53.116Z,999.87
2017-04-26T08:30:06.631Z,999.96
2017-04-26T08:31:20.027Z,999.93
2017-04-26T08:32:33.544Z,999.92
2017-04-26T08:33:47.344Z,999.88
2017-04-26T08:35:01.031Z,999.96
2017-04-26T08:36:14.733Z,999.97
2017-04-26T08:37:28.673Z,999.97
2017-04-26T08:38:42.099Z,1000.04
2017-04-26T08:39:55.668Z,1000.08
2017-04-26T08:41:09.391Z,1000.08
2017-04-26T08:42:22.892Z,1000.01
2017-04-26T08:43:36.646Z,999.97
2017-04-26T08:45:13.770Z,999.99
2017-04-26T08:46:39.277Z,999.94
2017-04-26T08:47:52.715Z,999.99
2017-04-26T08:49:06.300Z,999.96
2017-04-26T08:50:19.978Z,999.92
2017-04-26T08:51:34.049Z,999.96
2017-04-26T08:52:47.457Z,999.98
2017-04-26T08:54:01.586Z,999.98
2017-04-26T08:55:15.869Z,999.92
2017-04-26T08:56:29.466Z,999.96
2017-04-26T08:57:43.217Z,1000
2017-04-26T08:58:56.736Z,999.95
2017-04-26T09:00:10.532Z,999.94
2017-04-26T09:01:24.165Z,999.92
2017-04-26T09:02:37.903Z,999.89
2017-04-26T09:03:51.546Z,1000.03
2017-04-26T09:05:05.581Z,1000.01
2017-04-26T09:06:19.443Z,1000.02
2017-04-26T09:07:33.290Z,999.99
2017-04-26T09:08:47.295Z,1000.01
2017-04-26T09:10:00.753Z,1000.05
2017-04-26T09:11:14.422Z,1000.02
2017-04-26T09:12:28.453Z,1000.03
2017-04-26T09:13:41.993Z,999.99
2017-04-26T09:14:55.738Z,1000.03
2017-04-26T09:16:09.491Z,999.99
2017-04-26T09:17:23.564Z,999.95
2017-04-26T09:18:37.807Z,1000
2017-04-26T09:19:51.461Z,999.99
2017-04-26T09:21:05.122Z,1000
2017-04-26T09:22:18.853Z,999.99
2017-04-26T09:23:32.375Z,1000.04
2017-04-26T09:24:46.186Z,1000.03
2017-04-26T09:25:59.802Z,1000.05
2017-04-26T09:27:13.310Z,1000.08
2017-04-26T09:28:26.861Z,1000.05
2017-04-26T09:29:40.347Z,1000.07
2017-04-26T09:30:54.536Z,1000.1
2017-04-26T09:32:08.720Z,1000.07
2017-04-26T09:33:22.323Z,1000.06
2017-04-26T09:34:35.746Z,1000.09
2017-04-26T09:35:49.350Z,1000.08
2017-04-26T09:37:03.105Z,1000.09
2017-04-26T09:38:17.040Z,1000.12
2017-04-26T09:39:30.438Z,1000.09
2017-04-26T09:40:44.031Z,1000.06
2017-04-26T09:41:57.463Z,1000.04
2017-04-26T09:43:11.324Z,1000.02
2017-04-26T09:44:25.353Z,1000.07
2017-04-26T09:45:39.257Z,1000.05
2017-04-26T09:46:53.336Z,1000.12
2017-04-26T09:48:07.225Z,1000.12
2017-04-26T09:49:21.062Z,1000.1
2017-04-26T09:50:34.564Z,1000.11
2017-04-26T09:51:47.983Z,1000.14
2017-04-26T09:53:01.717Z,1000.11
2017-04-26T09:54:15.155Z,1000.18
2017-04-26T09:55:29.010Z,1000.17
2017-04-26T09:56:42.526Z,1000.14
2017-04-26T09:57:56.414Z,1000.11
2017-04-26T09:59:09.950Z,1000.16
2017-04-26T10:00:23.520Z,1000.16
2017-04-26T10:03:36.038Z,1000.12
2017-04-26T10:04:49.506Z,1000.11
2017-04-26T10:06:03.893Z,1000.09
2017-04-26T10:07:17.781Z,1000.09
2017-04-26T10:08:31.327Z,1000.1
2017-04-26T10:09:45.117Z,1000.07
2017-04-26T10:10:58.624Z,1000.07
2017-04-26T10:12:12.064Z,1000.08
2017-04-26T10:13:25.904Z,1000.08
2017-04-26T10:14:39.799Z,1000.11
2017-04-26T10:16:25.800Z,1000.04
2017-04-26T10:17:39.547Z,1000.13
2017-04-26T10:18:53.481Z,1000.08
2017-04-26T10:20:07.963Z,1000.03
2017-04-26T10:21:21.583Z,1000
2017-04-26T10:22:35.416Z,1000
2017-04-26T10:23:49.141Z,999.98
2017-04-26T10:25:03.143Z,1000.05
2017-04-26T10:26:37.523Z,1000.02
2017-04-26T10:27:51.674Z,1000
2017-04-26T10:30:20.460Z,999.99
2017-04-26T10:32:05.693Z,1000
2017-04-26T10:33:19.177Z,999.99
2017-04-26T10:34:32.892Z,999.95
2017-04-26T10:35:48.167Z,999.95
2017-04-26T10:37:02.214Z,999.98
2017-04-26T10:38:15.728Z,999.94
2017-04-26T10:39:29.588Z,999.94
2017-04-26T10:40:43.426Z,999.96
2017-04-26T10:41:57.005Z,999.96
2017-04-26T10:43:10.588Z,999.93
2017-04-26T10:44:24.258Z,999.96
2017-04-26T10:45:37.819Z,999.93
2017-04-26T10:46:51.377Z,999.95
2017-04-26T10:48:05.136Z,999.93
2017-04-26T10:49:19.031Z,1000
2017-04-26T10:50:32.871Z,999.95
2017-04-26T10:51:46.711Z,999.93
2017-04-26T10:53:00.136Z,999.91
2017-04-26T10:54:13.668Z,999.92
2017-04-26T10:55:27.056Z,999.9
2017-04-26T10:58:08.071Z,999.85
2017-04-26T10:59:26.843Z,999.88
2017-04-26T11:00:40.630Z,999.84
2017-04-26T11:01:54.467Z,999.84
2017-04-26T11:03:08.452Z,999.82
2017-04-26T11:04:22.009Z,999.82
2017-04-26T11:05:36.191Z,999.82
2017-04-26T11:06:49.681Z,999.9
2017-04-26T11:08:03.718Z,999.94
2017-04-26T11:09:17.663Z,999.89
2017-04-26T11:10:31.866Z,999.88
2017-04-26T11:11:47.239Z,999.94
2017-04-26T11:13:01.192Z,999.88
2017-04-26T11:14:15.140Z,999.88
2017-04-26T11:15:28.730Z,999.86
2017-04-26T11:16:44.310Z,999.83
2017-04-26T11:17:57.947Z,999.81
2017-04-26T11:19:12.050Z,999.84
2017-04-26T11:20:25.981Z,999.89
2017-04-26T11:21:39.868Z,999.85
2017-04-26T11:22:54.240Z,999.82
2017-04-26T11:24:08.749Z,999.79
2017-04-26T11:25:22.709Z,999.79
2017-04-26T11:26:36.286Z,999.78
2017-04-26T11:27:50.409Z,999.72
2017-04-26T11:29:04.196Z,999.73
2017-04-26T11:30:18.288Z,999.7
2017-04-26T11:31:32.569Z,999.74
2017-04-26T11:32:46.587Z,999.72
2017-04-26T11:34:00.041Z,999.74
2017-04-26T11:35:14.193Z,999.77
2017-04-26T11:36:28.184Z,999.8
2017-04-26T11:37:43.667Z,999.72
2017-04-26T11:38:57.261Z,999.75
2017-04-26T11:40:11.656Z,999.7
2017-04-26T11:41:25.417Z,999.72
2017-04-26T11:42:39.786Z,999.73
2017-04-26T11:43:53.505Z,999.71
2017-04-26T11:45:07.604Z,999.68
2017-04-26T11:46:21.243Z,999.74
2017-04-26T11:47:35.659Z,999.69
2017-04-26T11:48:49.448Z,999.68
2017-04-26T11:51:04.524Z,999.71
2017-04-26T11:53:00.456Z,999.7
2017-04-26T11:54:15.433Z,999.68
2017-04-26T11:55:30.263Z,999.66
2017-04-26T11:56:44.943Z,999.67
2017-04-26T11:58:00.240Z,999.71
2017-04-26T11:59:14.811Z,999.69
2017-04-26T12:00:29.050Z,999.65
2017-04-26T12:01:43.221Z,999.62
2017-04-26T12:02:57.967Z,999.64
2017-04-26T12:04:12.168Z,999.67
2017-04-26T12:05:26.703Z,999.58
2017-04-26T12:06:41.950Z,999.65
2017-04-26T12:07:55.896Z,999.68
2017-04-26T12:09:10.804Z,999.67
2017-04-26T12:10:25.852Z,999.66
2017-04-26T12:11:40.366Z,999.71
2017-04-26T12:12:54.971Z,999.7
2017-04-26T12:14:10.598Z,999.66
2017-04-26T12:15:24.702Z,999.65
2017-04-26T12:16:54.854Z,999.68
2017-04-26T12:18:10.162Z,999.73
2017-04-26T12:19:26.413Z,999.69
2017-04-26T12:20:40.523Z,999.68
2017-04-26T12:21:55.335Z,999.73
2017-04-26T12:23:09.906Z,999.65
2017-04-26T12:24:24.597Z,999.64
2017-04-26T12:25:48.969Z,999.7
2017-04-26T12:27:03.387Z,999.7
2017-04-26T12:28:18.331Z,999.7
2017-04-26T12:29:32.695Z,999.71
2017-04-26T12:30:47.626Z,999.73
2017-04-26T12:32:02.323Z,999.71
2017-04-26T12:33:16.779Z,999.73
2017-04-26T12:34:31.596Z,999.67
2017-04-26T12:35:45.699Z,999.63
2017-04-26T12:36:59.654Z,999.64
2017-04-26T12:38:14.073Z,999.62
2017-04-26T12:39:28.614Z,999.64
2017-04-26T12:40:43.932Z,999.58
2017-04-26T12:41:58.797Z,999.56
2017-04-26T12:43:13.714Z,999.56
2017-04-26T12:44:28.930Z,999.57
2017-04-26T12:45:44.189Z,999.58
2017-04-26T12:46:58.544Z,999.65
2017-04-26T12:48:13.087Z,999.56
2017-04-26T12:49:28.307Z,999.6
2017-04-26T12:50:43.489Z,999.58
2017-04-26T12:51:58.285Z,999.59
2017-04-26T12:53:12.407Z,999.64
2017-04-26T12:54:26.808Z,999.61
2017-04-26T12:55:41.178Z,999.58
2017-04-26T12:56:56.343Z,999.6
2017-04-26T12:58:11.264Z,999.63
2017-04-26T12:59:25.671Z,999.63
2017-04-26T13:00:40.095Z,999.66
2017-04-26T13:01:55.847Z,999.65
2017-04-26T13:03:10.914Z,999.6
2017-04-26T13:04:25.882Z,999.61
2017-04-26T13:05:40.937Z,999.65
2017-04-26T13:06:56.566Z,999.58
2017-04-26T13:08:11.564Z,999.56
2017-04-26T13:09:26.363Z,999.61
2017-04-26T13:10:41.931Z,999.61
2017-04-26T13:11:55.992Z,999.6
2017-04-26T13:13:10.227Z,999.56
2017-04-26T13:14:25.061Z,999.58
2017-04-26T13:15:40.179Z,999.58
2017-04-26T13:16:55.126Z,999.6
2017-04-26T13:18:09.644Z,999.59
2017-04-26T13:19:24.353Z,999.6
2017-04-26T13:20:38.988Z,999.64
2017-04-26T13:21:53.938Z,999.62
2017-04-26T13:23:08.041Z,999.62
2017-04-26T13:24:22.868Z,999.66
2017-04-26T13:25:37.754Z,999.61
2017-04-26T13:26:54.986Z,999.65
2017-04-26T13:28:09.233Z,999.68
2017-04-26T13:29:24.041Z,999.7
2017-04-26T13:30:39.406Z,999.63
2017-04-26T13:31:55.091Z,999.65
2017-04-26T13:33:57.607Z,999.68
2017-04-26T13:35:12.654Z,999.67
2017-04-26T13:36:28.736Z,999.65
2017-04-26T13:37:43.486Z,999.59
2017-04-26T13:38:57.861Z,999.63
2017-04-26T13:41:42.445Z,999.51
2017-04-26T13:42:56.907Z,999.57
2017-04-26T13:44:11.618Z,999.55
2017-04-26T13:45:26.348Z,999.63
2017-04-26T13:46:43.275Z,999.62
2017-04-26T13:47:58.153Z,999.62
2017-04-26T13:49:13.547Z,999.69
2017-04-26T13:50:28.753Z,999.67
2017-04-26T13:52:00.647Z,999.66
2017-04-26T13:53:15.119Z,999.6
2017-04-26T13:54:30.144Z,999.68
2017-04-26T13:55:44.362Z,999.66
2017-04-26T13:56:58.863Z,999.64
2017-04-26T13:58:13.493Z,999.7
2017-04-26T13:59:28.896Z,999.7
2017-04-26T14:00:44.163Z,999.75
2017-04-26T14:01:59.008Z,999.65
2017-04-26T14:03:13.523Z,999.76
2017-04-26T14:04:27.857Z,999.74
2017-04-26T14:05:42.518Z,999.75
2017-04-26T14:06:58.420Z,999.73
2017-04-26T14:08:12.665Z,999.78
2017-04-26T14:09:28.167Z,999.77
2017-04-26T14:10:43.161Z,999.79
2017-04-26T14:11:58.981Z,999.81
2017-04-26T14:13:14.612Z,999.76
2017-04-26T14:14:29.056Z,999.77
2017-04-26T14:15:44.970Z,999.76
2017-04-26T14:16:59.688Z,999.81
2017-04-26T14:18:14.863Z,999.79
2017-04-26T14:19:29.708Z,999.82
2017-04-26T14:20:43.824Z,999.86
2017-04-26T14:21:58.340Z,999.82
2017-04-26T14:23:12.968Z,999.79
2017-04-26T14:24:27.126Z,999.83
2017-04-26T14:25:42.201Z,999.8
2017-04-26T14:26:57.491Z,999.8
2017-04-26T14:28:12.103Z,999.79
2017-04-26T14:29:26.172Z,999.78
2017-04-26T14:30:40.605Z,999.76
2017-04-26T14:31:55.130Z,999.79
2017-04-26T14:33:10.052Z,999.76
2017-04-26T14:34:25.249Z,999.75
2017-04-26T14:35:40.465Z,999.74
2017-04-26T14:36:56.123Z,999.75
2017-04-26T14:38:10.774Z,999.72
2017-04-26T14:39:25.866Z,999.77
2017-04-26T14:40:40.538Z,999.75
2017-04-26T14:41:55.120Z,999.79
2017-04-26T14:43:10.167Z,999.77
2017-04-26T14:44:24.327Z,999.75
2017-04-26T14:45:57.886Z,999.79
2017-04-26T14:47:12.797Z,999.74
2017-04-26T14:48:27.722Z,999.74
2017-04-26T14:49:41.933Z,999.77
2017-04-26T14:52:26.552Z,999.73
2017-04-26T14:53:41.693Z,999.71
2017-04-26T14:54:59.107Z,999.69
2017-04-26T14:56:19.706Z,999.76
2017-04-26T14:57:34.187Z,999.73
2017-04-26T14:58:48.966Z,999.72
2017-04-26T15:00:03.143Z,999.76
2017-04-26T15:01:17.314Z,999.76
2017-04-26T15:02:32.469Z,999.78
2017-04-26T15:03:46.820Z,999.75
2017-04-26T15:05:01.326Z,999.73
2017-04-26T15:06:16.079Z,999.77
2017-04-26T15:07:31.447Z,999.73
2017-04-26T15:08:45.787Z,999.76
2017-04-26T15:10:01.133Z,999.72
2017-04-26T15:11:15.727Z,999.77
2017-04-26T15:12:31.801Z,999.72
2017-04-26T15:13:46.585Z,999.71
2017-04-26T15:15:01.262Z,999.8
2017-04-26T15:16:16.954Z,999.78
2017-04-26T15:17:32.150Z,999.84
2017-04-26T15:18:47.185Z,999.86
2017-04-26T15:20:02.715Z,999.82
2017-04-26T15:21:17.714Z,999.89
2017-04-26T15:22:31.972Z,999.89
2017-04-26T15:23:46.992Z,999.89
2017-04-26T15:25:01.484Z,999.92
2017-04-26T15:26:16.981Z,999.92
2017-04-26T15:27:31.221Z,999.93
2017-04-26T15:28:45.154Z,999.93
2017-04-26T15:29:59.482Z,999.97
2017-04-26T15:31:14.955Z,999.95
2017-04-26T15:32:29.306Z,999.97
2017-04-26T15:33:44.051Z,1000.07
2017-04-26T15:34:58.155Z,1000.02
2017-04-26T15:36:12.616Z,1000.05
2017-04-26T15:37:27.586Z,1000
2017-04-26T15:38:42.501Z,1000
2017-04-26T15:39:57.639Z,1000.07
2017-04-26T15:41:12.763Z,1000.03
2017-04-26T15:42:27.561Z,1000.06
2017-04-26T15:43:45.323Z,1000.05
2017-04-26T15:45:07.385Z,1000.08
2017-04-26T15:46:21.956Z,1000.09
2017-04-26T15:47:36.839Z,1000.12
2017-04-26T15:48:52.446Z,1000.12
2017-04-26T15:50:07.897Z,1000.13
2017-04-26T15:51:22.810Z,1000.15
2017-04-26T15:52:37.646Z,1000.13
2017-04-26T15:53:53.613Z,1000.14